Kaktovik, AK

9:12 PM AKDT on August 28, 2014 (GMT -0800)
Barter Island LRRS | Change Station
CLOSE
Current Station
Airport
Location: Barter Island,
Elevation: 7 ft
Nearby Weather Stations

Elev 7 ft 70.13 °N, 143.58 °W | Updated 11 minutes ago

Mostly Cloudy
Mostly Cloudy
45 °F
Feels Like 44 °F
N
4
Wind Variable Wind from NNW

Today
High -- | Low -- °F
--% Chance of Precip.
Yesterday
High -- | Low -- °F
Precip. -- in
5:32 AM 9:35 PM
Waxing Crescent, 12% visible
Pressure 29.50 in
Visibility 10.0 miles
Clouds Few 9500 ft
Mostly Cloudy 12000 ft
Windchill 44 °F
Dew Point 41 °F
Humidity 86%
Rainfall 0.00 in
Snow Depth Not available.
UV 0 out of 12
Pollen Not available.
Air Quality Not available.
Flu Activity Not available.
METAR PABA 290501Z AUTO 34003KT 10SM FEW095 BKN120 07/05 A2950 RMK AO2 SLP989 T00720050

More Conditions Fewer Conditions

Pressure 29.50 in
Visibility 10.0 miles
Clouds Few 9500 ft
Mostly Cloudy 12000 ft
Windchill 44 °F
Dew Point 41 °F
Humidity 86%
Rainfall 0.00 in
Snow Depth Not available.
UV 0 out of 12
Pollen Not available.
Air Quality Not available.
Flu Activity Not available.
METAR PABA 290501Z AUTO 34003KT 10SM FEW095 BKN120 07/05 A2950 RMK AO2 SLP989 T00720050

More Conditions Fewer Conditions

10-Day Weather Forecast

Almanac

Astronomy

Aug. 28, 2014 Rise Set
Actual Time 5:32 AM AKDT 9:35 PM AKDT
Civil Twilight 4:09 AM AKDT 10:55 PM AKDT
Nautical Twilight 2:08 AM AKDT 1:02 AM AKDT
Astronomical Twilight Sun does not rise Sun does not rise
Moon 10:39 AM AKDT (8/28) 8:47 PM AKDT (8/28)
Length of Visible Light 18h 46m
Length of Day
16h 03m
Tomorrow will be 9m 21s shorter.
Waxing Crescent, 12% of the Moon is Illuminated
Aug 29
Waxing Crescent
Sep 2
First Quarter
Sep 8
Full
Sep 15
Last Quarter
Sep 24
New

Yesterday's Extremes

State Highs State Lows

Community

WunderPhotos

Upload Photos

1,748,192 photos uploaded!

Nearby

Snow Depth

Station Depth Elevation
Imnaviat Creek 0 in 3050 ft
Atigun Pass 0 in 4800 ft
Fort Yukon 1 in 430 ft
Coldfoot 0 in 1040 ft
Gobblers Knob 0 in 2030 ft

Earthquake Activity

City Distance Mag. Time & Date
No recent earthquake activity has been reported nearby.
Minimum magnitude displayed is 2.5.

Coastal Water Temperatures

Place Temperature
No Stations Reporting

Nearby Weather Stations